Time;durP1;ratioP1;P1;durP2;ratioP2;P2;SDS_P1;SDS_P2;PMS_P1;PMS_P2;Temp;Humidity;BMP_temperature;BMP_pressure;BME280_temperature;BME280_humidity;BME280_pressure;Samples;Min_cycle;Max_cycle;Signal;HPM_P1;HPM_P2
2022/05/12 00:01:05;;;;;;;6.95;1.63;;;12.50;99.90;;;;;;5068299;28;20046;-76
2022/05/12 00:03:31;;;;;;;5.72;1.33;;;12.50;99.90;;;;;;5065641;28;20052;-76
2022/05/12 00:05:56;;;;;;;4.18;1.20;;;12.40;99.90;;;;;;5040184;28;20033;-76
2022/05/12 00:08:22;;;;;;;7.63;1.40;;;12.50;99.90;;;;;;5051479;28;20068;-76
2022/05/12 00:10:48;;;;;;;4.13;1.42;;;12.50;99.90;;;;;;5068234;28;20056;-77
2022/05/12 00:13:14;;;;;;;5.00;1.30;;;12.40;99.90;;;;;;5050239;28;20070;-76
2022/05/12 00:15:39;;;;;;;3.70;1.50;;;12.40;99.90;;;;;;5047435;28;20075;-76
2022/05/12 00:18:08;;;;;;;7.50;1.38;;;12.40;99.90;;;;;;5051003;28;20044;-76
2022/05/12 00:20:36;;;;;;;4.63;1.35;;;12.40;99.90;;;;;;5050093;28;20044;-76
2022/05/12 00:23:11;;;;;;;6.90;1.67;;;12.40;99.90;;;;;;5049937;28;21547;-77
2022/05/12 00:25:37;;;;;;;8.27;1.55;;;12.40;99.90;;;;;;5065713;28;20119;-76
2022/05/12 00:28:04;;;;;;;7.68;1.45;;;12.30;99.90;;;;;;5049703;28;20059;-76
2022/05/12 00:30:29;;;;;;;7.93;1.27;;;12.30;99.90;;;;;;5046707;28;20063;-76
2022/05/12 00:32:58;;;;;;;2.65;0.82;;;12.20;99.90;;;;;;5064366;28;20037;-76
2022/05/12 00:35:23;;;;;;;3.50;0.90;;;12.30;99.90;;;;;;5066682;28;20040;-76
2022/05/12 00:37:49;;;;;;;5.32;1.30;;;12.20;99.90;;;;;;5066156;28;20040;-76
2022/05/12 00:40:16;;;;;;;5.95;0.95;;;12.20;99.90;;;;;;5045495;28;20090;-76
2022/05/12 00:43:00;;;;;;;4.22;0.90;;;12.20;99.90;;;;;;5068675;28;20041;-76
2022/05/12 00:45:28;;;;;;;5.13;1.13;;;12.10;99.90;;;;;;5067122;28;20037;-76
2022/05/12 00:47:53;;;;;;;5.95;0.88;;;12.10;99.90;;;;;;5068401;28;20071;-76
2022/05/12 00:50:25;;;;;;;2.92;1.10;;;12.10;99.90;;;;;;5080338;28;20047;-75
2022/05/12 00:52:51;;;;;;;4.88;0.95;;;12.10;99.90;;;;;;5068142;28;20358;-76
2022/05/12 00:55:24;;;;;;;6.78;0.85;;;12.00;99.90;;;;;;5079645;28;20112;-76
2022/05/12 00:57:58;;;;;;;5.85;1.00;;;12.00;99.90;;;;;;5065817;28;20032;-76
2022/05/12 01:00:24;;;;;;;2.58;0.68;;;12.00;99.90;;;;;;5065741;28;20055;-76
2022/05/12 01:02:54;;;;;;;2.55;0.95;;;11.90;99.90;;;;;;5082787;28;20044;-76
2022/05/12 01:05:23;;;;;;;6.05;1.27;;;11.90;99.90;;;;;;5075824;28;20085;-76
2022/05/12 01:07:51;;;;;;;5.57;1.25;;;11.90;99.90;;;;;;5057649;28;20044;-75
2022/05/12 01:10:18;;;;;;;12.35;1.00;;;11.90;99.90;;;;;;5074738;28;20048;-76
2022/05/12 01:12:48;;;;;;;3.95;1.10;;;11.80;99.90;;;;;;5080049;28;20046;-76
2022/05/12 01:15:14;;;;;;;4.85;0.80;;;11.80;99.90;;;;;;5086564;28;20051;-76
2022/05/12 01:17:40;;;;;;;2.17;0.90;;;11.80;99.90;;;;;;5074829;28;20629;-76
2022/05/12 01:20:07;;;;;;;3.58;0.90;;;11.70;99.90;;;;;;5063331;28;20056;-75
2022/05/12 01:22:41;;;;;;;5.72;1.10;;;11.70;99.90;;;;;;5060162;28;20516;-76
2022/05/12 01:25:12;;;;;;;5.18;0.95;;;11.70;99.90;;;;;;5074932;28;20051;-76
2022/05/12 01:27:39;;;;;;;;;;;11.60;99.90;;;;;;5064935;28;20500;-76
2022/05/12 01:30:06;;;;;;;3.85;1.13;;;11.60;99.90;;;;;;5080351;28;19951;-76
2022/05/12 01:32:31;;;;;;;6.43;1.00;;;11.50;99.90;;;;;;5049476;28;20051;-75
2022/05/12 01:34:57;;;;;;;1.95;0.75;;;11.50;99.90;;;;;;5073241;28;20040;-76
2022/05/12 01:37:24;;;;;;;4.68;1.13;;;11.50;99.90;;;;;;5073333;28;20586;-77
2022/05/12 01:39:52;;;;;;;3.28;0.85;;;11.40;99.90;;;;;;5076397;28;20033;-76
2022/05/12 01:42:19;;;;;;;4.07;0.82;;;11.40;99.90;;;;;;5065625;28;20111;-76
2022/05/12 01:44:45;;;;;;;3.92;0.93;;;11.40;99.90;;;;;;5077872;28;20471;-76
2022/05/12 01:47:12;;;;;;;2.75;0.70;;;11.40;99.90;;;;;;5079245;28;20046;-76
2022/05/12 01:49:40;;;;;;;4.15;0.98;;;11.30;99.90;;;;;;5085262;28;20051;-76
2022/05/12 01:52:06;;;;;;;5.55;1.13;;;11.30;99.90;;;;;;5063713;28;20066;-76
2022/05/12 01:54:32;;;;;;;3.65;1.00;;;11.20;99.90;;;;;;5072997;28;20660;-76
2022/05/12 01:56:58;;;;;;;5.70;0.93;;;11.20;99.90;;;;;;5081344;28;20122;-75
2022/05/12 01:59:27;;;;;;;4.32;1.25;;;11.20;99.90;;;;;;5075761;28;20131;-76
2022/05/12 02:01:52;;;;;;;6.22;1.50;;;11.10;99.90;;;;;;5068630;28;20046;-76
2022/05/12 02:04:19;;;;;;;5.30;1.50;;;11.10;99.90;;;;;;5077389;28;20041;-75
2022/05/12 02:06:45;;;;;;;5.38;1.20;;;11.10;99.90;;;;;;5068344;28;20040;-75
2022/05/12 02:09:11;;;;;;;4.68;1.33;;;11.10;99.90;;;;;;5077916;28;20048;-76
2022/05/12 02:11:37;;;;;;;4.78;1.30;;;11.00;99.90;;;;;;5073941;28;20033;-76
2022/05/12 02:14:04;;;;;;;7.45;1.52;;;11.00;99.90;;;;;;5066042;28;20075;-76
2022/05/12 02:16:30;;;;;;;4.60;1.33;;;11.00;99.90;;;;;;5070738;28;20041;-75
2022/05/12 02:18:56;;;;;;;13.82;1.92;;;11.00;99.90;;;;;;5065847;28;20047;-76
2022/05/12 02:21:22;;;;;;;3.92;1.40;;;11.00;99.90;;;;;;5079527;28;20507;-76
2022/05/12 02:23:47;;;;;;;4.85;1.50;;;11.00;99.90;;;;;;5080450;28;20442;-76
2022/05/12 02:26:13;;;;;;;6.95;1.52;;;10.90;99.90;;;;;;5059528;28;20106;-76
2022/05/12 02:28:40;;;;;;;4.78;1.48;;;10.90;99.90;;;;;;5076103;28;20044;-76
2022/05/12 02:31:14;;;;;;;3.72;1.40;;;10.90;99.90;;;;;;5061657;28;20334;-76
2022/05/12 02:33:40;;;;;;;3.92;1.40;;;10.90;99.90;;;;;;5079931;28;20067;-76
2022/05/12 02:36:06;;;;;;;5.65;1.65;;;10.90;99.90;;;;;;5082128;28;20043;-76
2022/05/12 02:38:32;;;;;;;4.07;1.85;;;10.80;99.90;;;;;;5068578;28;20040;-76
2022/05/12 02:40:57;;;;;;;8.27;2.20;;;10.80;99.90;;;;;;5069435;28;20662;-76
2022/05/12 02:43:23;;;;;;;6.70;1.67;;;10.80;99.90;;;;;;5090352;28;20442;-76
2022/05/12 02:46:10;;;;;;;7.05;1.90;;;10.80;99.90;;;;;;5058594;28;20074;-76
2022/05/12 02:48:42;;;;;;;6.18;1.67;;;10.80;99.90;;;;;;5071284;28;20048;-76
2022/05/12 02:51:09;;;;;;;5.07;2.05;;;10.80;99.90;;;;;;5082475;28;20127;-75
2022/05/12 02:53:35;;;;;;;6.80;1.92;;;10.80;99.90;;;;;;5105358;28;20075;-76
2022/05/12 02:56:02;;;;;;;5.72;2.05;;;10.80;99.90;;;;;;5085330;28;20040;-75
2022/05/12 02:58:29;;;;;;;9.10;2.22;;;10.80;99.90;;;;;;5079897;28;20051;-75
2022/05/12 03:00:56;;;;;;;7.18;2.00;;;10.80;99.90;;;;;;5085453;28;20036;-75
2022/05/12 03:03:21;;;;;;;9.02;2.10;;;10.80;99.90;;;;;;5056785;28;20086;-75
2022/05/12 03:05:51;;;;;;;9.88;2.45;;;10.80;99.90;;;;;;5068688;28;20037;-75
2022/05/12 03:08:18;;;;;;;6.50;2.17;;;10.80;99.90;;;;;;5079179;28;20055;-75
2022/05/12 03:10:44;;;;;;;10.32;2.22;;;10.80;99.90;;;;;;5063583;28;20449;-76
2022/05/12 03:13:09;;;;;;;8.35;2.28;;;10.80;99.90;;;;;;5086028;28;20050;-75
2022/05/12 03:15:35;;;;;;;13.13;2.83;;;10.80;99.90;;;;;;5084752;28;20080;-75
2022/05/12 03:18:00;;;;;;;8.95;2.40;;;10.80;99.90;;;;;;5065704;28;20122;-75
2022/05/12 03:20:29;;;;;;;7.85;3.13;;;10.80;99.90;;;;;;5067597;28;20438;-75
2022/05/12 03:22:54;;;;;;;9.98;2.33;;;10.90;99.90;;;;;;5075836;28;20048;-75
2022/05/12 03:25:21;;;;;;;8.60;2.83;;;10.80;99.90;;;;;;5087552;28;20567;-75
2022/05/12 03:27:47;;;;;;;8.73;3.05;;;10.80;99.90;;;;;;5063530;28;20033;-75
2022/05/12 03:30:18;;;;;;;9.35;3.08;;;10.90;99.90;;;;;;5072240;28;20054;-75
2022/05/12 03:32:47;;;;;;;8.68;3.45;;;10.90;99.90;;;;;;5080965;28;20059;-75
2022/05/12 03:35:13;;;;;;;14.02;3.65;;;10.80;99.90;;;;;;5069898;28;20036;-75
2022/05/12 03:37:41;;;;;;;10.40;3.15;;;10.90;99.90;;;;;;5087951;28;20074;-75
2022/05/12 03:40:08;;;;;;;10.85;3.20;;;10.90;99.90;;;;;;5072578;28;20051;-75
2022/05/12 03:42:34;;;;;;;14.05;3.33;;;10.90;99.90;;;;;;5086267;28;20071;-75
2022/05/12 03:45:00;;;;;;;10.50;3.80;;;11.00;99.90;;;;;;5076839;28;20040;-75
2022/05/12 03:47:33;;;;;;;8.73;3.88;;;10.90;99.90;;;;;;5063829;28;20389;-75
2022/05/12 03:50:03;;;;;;;9.75;3.00;;;10.90;99.90;;;;;;5081233;28;20117;-75
2022/05/12 03:52:30;;;;;;;15.32;3.50;;;10.90;99.90;;;;;;5061323;28;20041;-76
2022/05/12 03:54:59;;;;;;;10.90;3.30;;;10.90;99.90;;;;;;5068244;28;20055;-75
2022/05/12 03:57:27;;;;;;;8.82;3.28;;;10.90;99.90;;;;;;5086278;28;20047;-75
2022/05/12 03:59:53;;;;;;;9.95;3.97;;;10.90;99.90;;;;;;5067321;28;20056;-75
2022/05/12 04:02:23;;;;;;;10.93;3.85;;;10.90;99.90;;;;;;5073036;28;20045;-75
2022/05/12 04:04:52;;;;;;;12.57;3.92;;;10.90;99.90;;;;;;5069709;28;20063;-75
2022/05/12 04:07:21;;;;;;;11.63;3.30;;;11.00;99.90;;;;;;5075532;28;20067;-75
2022/05/12 04:09:47;;;;;;;10.25;3.60;;;11.00;99.90;;;;;;5089210;28;20068;-75
2022/05/12 04:12:15;;;;;;;19.55;4.43;;;11.00;99.90;;;;;;5066033;28;20044;-75
2022/05/12 04:14:42;;;;;;;10.90;4.03;;;11.00;99.90;;;;;;5086174;28;20055;-75
2022/05/12 04:17:13;;;;;;;8.10;3.70;;;11.00;99.90;;;;;;5065863;28;20118;-75
2022/05/12 04:19:44;;;;;;;14.48;3.92;;;11.00;99.90;;;;;;5082134;28;20036;-75
2022/05/12 04:22:10;;;;;;;;;;;11.00;99.90;;;;;;5063020;28;20223;-75
2022/05/12 04:24:36;;;;;;;10.98;4.30;;;10.90;99.90;;;;;;5069500;28;20370;-75
2022/05/12 04:27:02;;;;;;;9.30;3.70;;;10.90;99.90;;;;;;5083426;28;20058;-75
2022/05/12 04:29:27;;;;;;;12.98;4.03;;;11.00;99.90;;;;;;5088816;28;20040;-75
2022/05/12 04:31:53;;;;;;;10.65;3.58;;;11.00;99.90;;;;;;5066325;28;20132;-75
2022/05/12 04:37:03;;;;;;;11.13;4.32;;;11.10;99.90;;;;;;5063256;28;20047;-75
2022/05/12 04:39:30;;;;;;;10.00;4.20;;;11.10;99.90;;;;;;5074212;28;20201;-75
2022/05/12 04:41:56;;;;;;;9.40;3.53;;;11.10;99.90;;;;;;5068705;28;20044;-74
2022/05/12 04:44:21;;;;;;;10.13;3.58;;;11.20;99.90;;;;;;5085146;28;20027;-76
2022/05/12 04:46:47;;;;;;;7.20;3.67;;;11.20;99.90;;;;;;5070667;28;20047;-75
2022/05/12 04:49:13;;;;;;;16.85;3.97;;;11.20;99.90;;;;;;5069294;28;20066;-75
2022/05/12 04:51:41;;;;;;;11.27;3.85;;;11.30;99.90;;;;;;5078525;28;20495;-76
2022/05/12 04:54:09;;;;;;;10.25;3.60;;;11.30;99.90;;;;;;5084691;28;20044;-76
2022/05/12 04:56:36;;;;;;;21.23;4.65;;;11.30;99.90;;;;;;5087342;28;20096;-75
2022/05/12 04:59:03;;;;;;;13.02;4.18;;;11.30;99.90;;;;;;5064884;28;20047;-76
2022/05/12 05:01:29;;;;;;;18.02;4.20;;;11.40;99.90;;;;;;5057277;28;20059;-75
2022/05/12 05:03:54;;;;;;;16.63;4.65;;;11.40;99.90;;;;;;5067183;28;20471;-75
2022/05/12 05:06:20;;;;;;;10.25;3.60;;;11.40;99.90;;;;;;5059415;28;20056;-75
2022/05/12 05:08:45;;;;;;;20.27;4.28;;;11.40;99.90;;;;;;5078433;28;20364;-77
2022/05/12 05:11:11;;;;;;;12.40;3.75;;;11.50;99.90;;;;;;5068050;28;20071;-76
2022/05/12 05:13:36;;;;;;;9.35;4.15;;;11.50;99.90;;;;;;5065037;28;20051;-76
2022/05/12 05:16:02;;;;;;;10.95;4.18;;;11.50;99.90;;;;;;5081949;28;20118;-76
2022/05/12 05:18:28;;;;;;;13.75;3.95;;;11.50;99.90;;;;;;5081793;28;20041;-75
2022/05/12 05:20:54;;;;;;;17.38;4.75;;;11.60;99.90;;;;;;5077660;28;20043;-76
2022/05/12 05:23:21;;;;;;;11.00;3.80;;;11.60;99.90;;;;;;5084712;28;20058;-75
2022/05/12 05:25:48;;;;;;;17.48;3.75;;;11.60;99.90;;;;;;5082679;28;20474;-75
2022/05/12 05:28:15;;;;;;;9.77;4.25;;;11.60;99.90;;;;;;5082183;28;20059;-76
2022/05/12 05:30:41;;;;;;;14.70;4.50;;;11.70;99.90;;;;;;5069933;28;20040;-76
2022/05/12 05:33:08;;;;;;;9.52;3.67;;;11.70;99.90;;;;;;5066188;28;20051;-76
2022/05/12 05:35:34;;;;;;;11.27;4.57;;;11.70;99.90;;;;;;5082550;28;20116;-75
2022/05/12 05:38:00;;;;;;;11.02;4.03;;;11.80;99.90;;;;;;5084319;28;20048;-75
2022/05/12 05:40:27;;;;;;;13.35;4.40;;;11.80;99.90;;;;;;5077528;28;20040;-75
2022/05/12 05:42:53;;;;;;;15.77;4.20;;;11.90;99.90;;;;;;5072889;28;20051;-76
2022/05/12 05:45:19;;;;;;;9.32;4.07;;;11.90;99.90;;;;;;5078567;28;20152;-76
2022/05/12 05:47:51;;;;;;;15.52;3.75;;;11.90;99.90;;;;;;5065195;28;20044;-75
2022/05/12 05:50:24;;;;;;;15.98;4.45;;;12.00;99.90;;;;;;5066127;28;20059;-75
2022/05/12 05:55:34;;;;;;;10.93;3.80;;;12.10;99.90;;;;;;5081277;28;20084;-75
2022/05/12 05:58:00;;;;;;;13.45;4.40;;;12.20;99.90;;;;;;5066869;28;20101;-75
2022/05/12 06:00:27;;;;;;;8.07;3.70;;;12.20;99.90;;;;;;5064860;28;20047;-75
2022/05/12 06:02:53;;;;;;;11.73;3.50;;;12.30;99.90;;;;;;5077975;28;20061;-74
2022/05/12 06:05:19;;;;;;;8.65;3.47;;;12.30;99.90;;;;;;5078020;28;20032;-76
2022/05/12 06:07:45;;;;;;;14.30;3.65;;;12.40;99.90;;;;;;5084544;28;20090;-75
2022/05/12 06:10:11;;;;;;;11.73;4.00;;;12.40;99.90;;;;;;5069500;28;20146;-76
2022/05/12 06:12:40;;;;;;;12.43;3.47;;;12.50;99.90;;;;;;5055798;28;20066;-75
2022/05/12 06:15:07;;;;;;;8.88;3.08;;;12.50;99.90;;;;;;5080919;28;20044;-75
2022/05/12 06:17:35;;;;;;;15.68;3.47;;;12.60;99.90;;;;;;5079226;28;20115;-76
2022/05/12 06:20:00;;;;;;;10.82;3.00;;;12.70;99.90;;;;;;5060786;28;20040;-76
2022/05/12 06:22:26;;;;;;;11.55;3.25;;;12.70;99.90;;;;;;5064806;28;20066;-77
2022/05/12 06:24:52;;;;;;;13.63;3.13;;;12.80;99.90;;;;;;5079740;28;20646;-76
2022/05/12 06:27:19;;;;;;;6.80;3.17;;;12.80;99.90;;;;;;5070258;28;20070;-77
2022/05/12 06:29:45;;;;;;;11.50;3.00;;;12.90;99.90;;;;;;5052635;28;20098;-77
2022/05/12 06:32:17;;;;;;;12.73;2.80;;;12.90;99.90;;;;;;5067258;28;20068;-76
2022/05/12 06:34:42;;;;;;;9.68;2.92;;;13.00;99.90;;;;;;5064335;28;20438;-76
2022/05/12 06:37:16;;;;;;;6.55;2.22;;;13.00;99.90;;;;;;5081610;28;20028;-77
2022/05/12 06:39:42;;;;;;;10.48;2.95;;;13.10;99.90;;;;;;5070204;28;20123;-77
2022/05/12 06:42:08;;;;;;;9.52;2.72;;;13.20;99.90;;;;;;5086198;28;20136;-76
2022/05/12 06:44:34;;;;;;;9.95;2.53;;;13.20;99.90;;;;;;5087618;28;20040;-76
2022/05/12 06:47:01;;;;;;;10.77;2.80;;;13.30;99.90;;;;;;5084815;28;20036;-76
2022/05/12 06:49:28;;;;;;;10.25;2.35;;;13.40;99.90;;;;;;5067977;28;20672;-77
2022/05/12 06:51:56;;;;;;;8.45;2.13;;;13.40;99.90;;;;;;5065367;28;20530;-76
2022/05/12 06:54:22;;;;;;;10.20;2.67;;;13.40;99.90;;;;;;5070280;28;20059;-77
2022/05/12 06:56:48;;;;;;;7.13;1.70;;;13.50;99.90;;;;;;5066530;28;20040;-77
2022/05/12 06:59:14;;;;;;;12.65;2.33;;;13.50;99.90;;;;;;5081175;28;20094;-77
2022/05/12 07:01:39;;;;;;;19.52;2.85;;;13.60;99.90;;;;;;5062574;28;20147;-76
2022/05/12 07:04:05;;;;;;;9.18;2.13;;;13.60;99.90;;;;;;5074440;28;20036;-76
2022/05/12 07:06:31;;;;;;;15.90;2.60;;;13.70;99.90;;;;;;5079948;28;20559;-77
2022/05/12 07:08:57;;;;;;;7.78;1.52;;;13.70;99.90;;;;;;5058829;28;20357;-76
2022/05/12 07:11:23;;;;;;;12.98;2.72;;;13.80;99.90;;;;;;5074093;28;20091;-77
2022/05/12 07:13:48;;;;;;;6.97;1.63;;;13.80;99.90;;;;;;5083152;28;20464;-76
2022/05/12 07:16:14;;;;;;;7.90;2.25;;;13.80;99.90;;;;;;5072936;28;20047;-76
2022/05/12 07:18:40;;;;;;;7.03;1.92;;;13.90;99.90;;;;;;5084604;28;20051;-77
2022/05/12 07:26:40;;;;;;;9.00;1.90;;;14.00;99.90;;;;;;5065699;28;20369;-76
2022/05/12 07:29:27;;;;;;;7.50;2.28;;;14.10;99.90;;;;;;5084896;28;20486;-76
2022/05/12 07:31:54;;;;;;;9.23;2.08;;;14.10;99.90;;;;;;5071659;28;20048;-76
2022/05/12 07:34:21;;;;;;;6.90;2.03;;;14.10;99.90;;;;;;5078696;28;20037;-75
2022/05/12 07:36:52;;;;;;;10.02;2.17;;;14.20;99.90;;;;;;5080025;28;20036;-76
2022/05/12 07:39:23;;;;;;;9.15;1.90;;;14.30;99.90;;;;;;5074089;28;20436;-76
2022/05/12 07:41:48;;;;;;;7.20;2.50;;;14.40;99.90;;;;;;5065716;28;20552;-75
2022/05/12 07:44:17;;;;;;;7.25;1.95;;;14.50;99.90;;;;;;5088161;28;20185;-76
2022/05/12 07:46:43;;;;;;;6.97;1.88;;;14.60;99.90;;;;;;5071508;28;20051;-75
2022/05/12 07:49:08;;;;;;;8.55;1.70;;;14.60;99.90;;;;;;5076147;28;20048;-77
2022/05/12 07:51:34;;;;;;;6.13;1.30;;;14.70;99.90;;;;;;5082821;28;20044;-76
2022/05/12 07:53:59;;;;;;;8.52;1.70;;;14.70;99.90;;;;;;5078623;28;20051;-76
2022/05/12 07:56:26;;;;;;;9.57;1.60;;;14.80;99.90;;;;;;5067410;28;20036;-76
2022/05/12 07:58:54;;;;;;;12.43;1.95;;;14.80;99.90;;;;;;5065334;28;20051;-76
2022/05/12 08:01:20;;;;;;;9.88;1.90;;;14.80;99.90;;;;;;5086938;28;20405;-76
2022/05/12 08:03:47;;;;;;;13.05;2.10;;;14.90;99.90;;;;;;5088344;28;20163;-78
2022/05/12 08:06:16;;;;;;;7.75;1.73;;;14.90;99.90;;;;;;5083059;28;20420;-78
2022/05/12 08:08:44;;;;;;;7.90;1.65;;;14.90;99.90;;;;;;5090594;28;20044;-77
2022/05/12 08:11:10;;;;;;;9.48;1.98;;;15.00;99.90;;;;;;5083963;28;20024;-77
2022/05/12 08:13:37;;;;;;;7.63;2.15;;;15.00;99.90;;;;;;5090189;28;20043;-77
2022/05/12 08:16:04;;;;;;;8.43;1.83;;;15.00;99.90;;;;;;5087473;28;20048;-78
2022/05/12 08:18:32;;;;;;;9.73;1.83;;;15.00;99.90;;;;;;5068960;28;20105;-77
2022/05/12 08:20:58;;;;;;;8.05;1.30;;;15.00;99.90;;;;;;5069510;28;20040;-77
2022/05/12 08:23:24;;;;;;;8.05;1.70;;;15.10;99.90;;;;;;5079372;28;20059;-77
2022/05/12 08:25:50;;;;;;;5.47;1.33;;;15.10;99.90;;;;;;5084115;28;20459;-76
2022/05/12 08:28:21;;;;;;;7.18;2.20;;;15.10;99.90;;;;;;5087240;28;20052;-77
2022/05/12 08:30:48;;;;;;;8.13;1.52;;;15.10;99.90;;;;;;5083336;28;20522;-76
2022/05/12 08:33:14;;;;;;;7.65;1.42;;;15.20;99.90;;;;;;5077712;28;20037;-77
2022/05/12 08:35:42;;;;;;;9.77;1.95;;;15.40;99.90;;;;;;5088573;28;20372;-77
2022/05/12 08:38:09;;;;;;;6.30;1.80;;;15.40;99.90;;;;;;5078206;28;20044;-77
2022/05/12 08:41:03;;;;;;;9.57;1.60;;;15.50;99.90;;;;;;5082559;28;20208;-78
2022/05/12 08:43:33;;;;;;;7.80;1.70;;;15.60;99.90;;;;;;5050488;28;20045;-77
2022/05/12 08:46:06;;;;;;;10.95;1.70;;;15.60;99.90;;;;;;5059846;28;20043;-76
2022/05/12 08:48:31;;;;;;;11.35;1.70;;;15.60;99.90;;;;;;5088950;28;20056;-78
2022/05/12 08:50:57;;;;;;;9.57;1.75;;;15.60;99.90;;;;;;5078912;28;20036;-76
2022/05/12 08:53:29;;;;;;;4.60;1.20;;;15.60;99.90;;;;;;5057235;28;20110;-76
2022/05/12 08:55:59;;;;;;;9.07;1.60;;;15.60;99.90;;;;;;5048859;28;20476;-77
2022/05/12 08:58:36;;;;;;;8.50;1.40;;;15.60;99.90;;;;;;5077900;28;20519;-77
2022/05/12 09:01:08;;;;;;;6.60;1.75;;;15.60;99.90;;;;;;5066418;28;20048;-76
2022/05/12 09:03:38;;;;;;;9.13;1.58;;;15.60;99.90;;;;;;5061879;28;20055;-76
2022/05/12 09:06:11;;;;;;;6.47;1.60;;;15.50;99.90;;;;;;5078220;28;20084;-77
2022/05/12 09:08:52;;;;;;;10.23;1.40;;;15.60;99.90;;;;;;5080041;28;20134;-76
2022/05/12 09:11:25;;;;;;;5.07;1.70;;;15.60;99.90;;;;;;5066486;28;20048;-76
2022/05/12 09:13:53;;;;;;;6.88;1.83;;;15.50;99.90;;;;;;5087386;28;20055;-77
2022/05/12 09:16:21;;;;;;;3.65;1.23;;;15.50;99.90;;;;;;5076878;28;20052;-75
2022/05/12 09:18:47;;;;;;;7.80;1.88;;;15.50;99.90;;;;;;5077915;28;20040;-76
2022/05/12 09:21:22;;;;;;;10.13;2.15;;;15.50;99.90;;;;;;5045235;28;20045;-74
2022/05/12 09:23:49;;;;;;;7.32;1.52;;;15.50;99.90;;;;;;5082815;28;20466;-75
2022/05/12 09:26:39;;;;;;;7.65;1.50;;;15.50;99.90;;;;;;5080761;28;20106;-77
2022/05/12 09:29:24;;;;;;;4.63;1.00;;;15.70;99.90;;;;;;5067284;28;20131;-76
2022/05/12 09:32:04;;;;;;;6.15;1.10;;;15.70;99.90;;;;;;5069119;28;20044;-75
2022/05/12 09:34:43;;;;;;;3.70;0.95;;;15.70;99.90;;;;;;5081754;28;20083;-75
2022/05/12 09:37:25;;;;;;;5.40;1.48;;;15.80;99.90;;;;;;5078072;28;20037;-74
2022/05/12 09:40:26;;;;;;;7.53;1.15;;;15.90;99.90;;;;;;5066283;28;20306;-75
2022/05/12 09:42:56;;;;;;;6.03;1.30;;;16.00;99.90;;;;;;5074474;28;20052;-74
2022/05/12 09:45:24;;;;;;;5.45;1.30;;;16.10;99.90;;;;;;5062746;28;20059;-75
2022/05/12 09:47:51;;;;;;;4.55;1.83;;;16.20;99.90;;;;;;5070151;28;20055;-76
2022/05/12 09:50:26;;;;;;;6.22;1.10;;;16.20;99.90;;;;;;5067994;28;20470;-75
2022/05/12 09:52:54;;;;;;;5.63;1.17;;;16.30;99.90;;;;;;5083423;28;20155;-75
2022/05/12 09:55:27;;;;;;;3.95;1.13;;;16.40;99.90;;;;;;5085183;28;20487;-76
2022/05/12 09:58:04;;;;;;;7.25;1.42;;;16.50;99.80;;;;;;5083165;28;20487;-75
2022/05/12 10:01:02;;;;;;;5.60;1.08;;;16.60;99.50;;;;;;5056875;28;20051;-77
2022/05/12 10:09:15;;;;;;;6.18;1.23;;;16.70;97.80;;;;;;5061742;28;20052;-75
2022/05/12 10:12:00;;;;;;;5.38;1.20;;;16.70;97.40;;;;;;5081921;28;20512;-75
2022/05/12 10:14:44;;;;;;;9.35;1.00;;;16.70;97.20;;;;;;5085278;28;20072;-75
2022/05/12 10:17:47;;;;;;;4.20;1.17;;;16.70;96.80;;;;;;5062448;28;20059;-76
2022/05/12 10:20:21;;;;;;;6.53;1.58;;;16.70;96.90;;;;;;5034602;28;20056;-76
2022/05/12 10:22:47;;;;;;;3.78;1.30;;;16.80;96.40;;;;;;5077296;28;20123;-76
2022/05/12 10:25:58;;;;;;;6.63;1.40;;;16.80;96.10;;;;;;5067750;28;20122;-76
2022/05/12 10:28:28;;;;;;;5.60;1.17;;;16.80;96.30;;;;;;5067287;28;20055;-76
2022/05/12 10:31:24;;;;;;;8.32;1.35;;;16.70;96.10;;;;;;5086273;28;20057;-78
2022/05/12 10:34:22;;;;;;;8.52;1.40;;;16.70;95.50;;;;;;5067766;28;20123;-77
2022/05/12 10:37:19;;;;;;;6.10;1.77;;;16.70;95.90;;;;;;5051169;28;20047;-77
2022/05/12 10:40:23;;;;;;;6.72;1.20;;;16.70;95.70;;;;;;5084822;28;20043;-78
2022/05/12 10:42:57;;;;;;;5.70;1.08;;;16.80;95.90;;;;;;5047018;28;20826;-75
2022/05/12 10:45:43;;;;;;;4.35;1.50;;;16.90;95.50;;;;;;5080185;28;20075;-76
2022/05/12 10:48:47;;;;;;;9.82;1.38;;;16.90;95.00;;;;;;5080101;28;20186;-78
2022/05/12 10:51:24;;;;;;;6.45;1.30;;;17.10;94.60;;;;;;5040930;28;20544;-78
2022/05/12 10:54:10;;;;;;;6.50;1.27;;;17.10;94.10;;;;;;5067315;28;20045;-75
2022/05/12 10:56:56;;;;;;;7.07;1.13;;;17.30;94.10;;;;;;5056561;28;20044;-75
2022/05/12 10:59:53;;;;;;;4.80;1.25;;;17.40;94.40;;;;;;5045285;28;20056;-76
2022/05/12 11:02:26;;;;;;;6.28;1.23;;;17.50;94.10;;;;;;5066829;28;20032;-75
2022/05/12 11:04:56;;;;;;;3.20;0.90;;;17.50;93.50;;;;;;5050487;28;20039;-75
2022/05/12 11:07:37;;;;;;;7.00;1.30;;;17.40;93.40;;;;;;5064156;28;20055;-76
2022/05/12 11:10:03;;;;;;;3.80;1.00;;;17.50;93.40;;;;;;5053767;28;20048;-76
2022/05/12 11:12:43;;;;;;;6.68;1.30;;;17.60;92.80;;;;;;5051755;28;20310;-75
2022/05/12 11:15:11;;;;;;;4.75;1.05;;;17.70;91.90;;;;;;5066002;28;20090;-75
2022/05/12 11:17:52;;;;;;;7.35;1.10;;;17.70;91.80;;;;;;5062367;28;20081;-75
2022/05/12 11:20:28;;;;;;;8.40;1.25;;;17.80;92.00;;;;;;5061954;28;20040;-76
2022/05/12 11:23:08;;;;;;;5.32;1.13;;;17.90;91.90;;;;;;5048693;28;20571;-76
2022/05/12 11:25:37;;;;;;;5.15;1.00;;;18.00;91.80;;;;;;5044060;28;20044;-77
2022/05/12 11:31:14;;;;;;;6.40;1.17;;;18.20;92.00;;;;;;5066188;28;20051;-76
2022/05/12 11:33:45;;;;;;;4.50;1.13;;;18.30;91.70;;;;;;5067375;28;20045;-75
2022/05/12 11:36:11;;;;;;;8.15;1.30;;;18.30;91.60;;;;;;5064322;28;20036;-77
2022/05/12 11:38:37;;;;;;;3.10;1.02;;;18.30;91.80;;;;;;5049496;28;20048;-75
2022/05/12 11:41:04;;;;;;;6.55;1.48;;;18.40;91.40;;;;;;5074922;28;20093;-75
2022/05/12 11:47:00;;;;;;;3.05;1.00;;;18.60;90.40;;;;;;5067751;28;20333;-76
2022/05/12 11:49:57;;;;;;;3.03;0.95;;;18.60;89.40;;;;;;5085690;28;20465;-74
2022/05/12 11:53:00;;;;;;;4.75;0.90;;;18.60;86.20;;;;;;5079237;28;20056;-74
2022/05/12 11:55:35;;;;;;;5.38;1.02;;;18.80;89.50;;;;;;5087690;28;20047;-75
2022/05/12 11:58:11;;;;;;;1.42;0.60;;;18.90;88.00;;;;;;5066940;28;20545;-75
2022/05/12 12:00:37;;;;;;;3.03;1.13;;;19.00;86.40;;;;;;5084474;28;20381;-74
2022/05/12 12:03:18;;;;;;;5.50;1.27;;;19.10;85.20;;;;;;5076164;28;20047;-75
2022/05/12 12:05:49;;;;;;;5.80;0.90;;;19.10;85.90;;;;;;5059649;28;20403;-74
2022/05/12 12:08:30;;;;;;;3.38;1.10;;;19.20;86.40;;;;;;5079444;28;20047;-75
2022/05/12 12:11:19;;;;;;;2.38;1.27;;;19.30;84.70;;;;;;5089822;28;20050;-74
2022/05/12 12:13:52;;;;;;;6.57;1.30;;;19.40;84.30;;;;;;5068472;28;20066;-74
2022/05/12 12:16:22;;;;;;;4.82;1.10;;;19.50;82.80;;;;;;5081696;28;20044;-75
2022/05/12 12:18:52;;;;;;;3.55;1.08;;;19.60;82.60;;;;;;5083566;28;20051;-74
2022/05/12 12:21:36;;;;;;;4.95;1.52;;;19.70;81.90;;;;;;5090358;28;20051;-75
2022/05/12 12:24:51;;;;;;;4.85;1.20;;;19.90;81.30;;;;;;5090486;28;20055;-74
2022/05/12 12:27:31;;;;;;;6.97;1.13;;;20.00;80.90;;;;;;5049163;28;20106;-74
2022/05/12 12:30:34;;;;;;;3.30;1.03;;;20.10;80.40;;;;;;5069968;28;20122;-74
2022/05/12 12:33:17;;;;;;;6.35;1.38;;;20.20;79.60;;;;;;5085916;28;20348;-74
2022/05/12 12:36:08;;;;;;;3.05;0.80;;;20.30;78.00;;;;;;5086832;28;20116;-74
2022/05/12 12:38:48;;;;;;;6.90;1.63;;;20.40;76.60;;;;;;5072613;28;20066;-75
2022/05/12 12:41:19;;;;;;;7.80;1.08;;;20.40;76.10;;;;;;5072660;28;20051;-74
2022/05/12 12:44:23;;;;;;;6.75;1.70;;;20.50;75.70;;;;;;5070031;28;20088;-75
2022/05/12 12:46:58;;;;;;;5.57;1.20;;;20.50;75.60;;;;;;5087947;28;20048;-75
2022/05/12 12:49:33;;;;;;;4.90;1.00;;;20.50;75.00;;;;;;5083015;28;20183;-76
2022/05/12 12:52:11;;;;;;;2.72;1.02;;;20.60;74.90;;;;;;5073197;28;20051;-75
2022/05/12 12:58:02;;;;;;;2.55;0.85;;;20.80;74.00;;;;;;5088637;28;20044;-76
2022/05/12 13:00:33;;;;;;;5.90;1.17;;;20.80;74.60;;;;;;4990536;28;20072;-76
2022/05/12 13:03:29;;;;;;;7.50;1.10;;;20.90;74.00;;;;;;4980535;28;20038;-75
2022/05/12 13:06:16;;;;;;;5.13;1.15;;;20.70;73.40;;;;;;5052629;28;20083;-75
2022/05/12 13:08:42;;;;;;;3.30;1.00;;;20.50;72.50;;;;;;5071663;28;20055;-76
2022/05/12 13:11:16;;;;;;;3.65;1.20;;;20.30;72.50;;;;;;5071301;28;20108;-74
2022/05/12 13:13:52;;;;;;;3.65;0.90;;;20.20;72.10;;;;;;5088492;28;20044;-75
2022/05/12 13:16:22;;;;;;;4.93;1.00;;;20.20;71.30;;;;;;5090613;28;20054;-75
2022/05/12 13:18:51;;;;;;;3.00;0.90;;;20.30;69.70;;;;;;5089556;28;20104;-75
2022/05/12 13:21:28;;;;;;;3.60;0.90;;;20.20;68.00;;;;;;5089148;28;20048;-75
2022/05/12 13:24:00;;;;;;;5.90;1.23;;;20.10;68.40;;;;;;5071281;28;20122;-75
2022/05/12 13:26:26;;;;;;;5.30;1.60;;;20.20;68.60;;;;;;5089196;28;20072;-74
2022/05/12 13:28:52;;;;;;;4.13;1.05;;;20.20;68.80;;;;;;5088421;28;20097;-76
2022/05/12 13:31:21;;;;;;;3.83;0.80;;;20.40;67.80;;;;;;5071031;28;20135;-76